Strona główna
METAR-TAF:

METAR-TAF

Lotnisko :

Port lotniczy Norwich

Norwich, Anglia

Szerokość geograficzna: 52-38N, Długość geograficzna: 001-18E, wysokość: 14 m

Aktualna obserwacja pogody

Raport powstał 32 minut temu, godzina 03:50 UTC
Wiatr 13 kt od zachodnio-południowy zachód
Temperatura 4°C
Wilgotność 87%
Ciśnienie 996 hPa
Widzialność 10 km lub więcej

METAR: EGSH 120350Z AUTO 24013KT 9999 NCD 04/02 Q0996

czas: 04:22 (04:22 UTC)

Prognoza

Raport powstał 2 godziny i 24 minut temu, godzina 01:58 UTC
Prognoza ważna od 12 godzina 03 UTC do 12 godzina 12 UTC
Wiatr 11 kt od południowy zachód
Widzialność 10 km lub więcej
Mało chmury na wysokości 3000 ft
Prawdopodobieństwo 30% :
Przejściowo
od 12 godzina 09 UTC do 12 godzina 12 UTC
Wiatr 18 kt od zachodnio-południowy zachód w porywach dochodzący do 30 kt
Widzialność: 6000 m
przelotny opad deszczu

TAF: EGSH 120158Z 1203/1212 23011KT 9999 FEW030 PROB30 TEMPO 1209/1212 25018G30KT 6000 SHRA

Obserwacja i prognoza pogody dla ponad 4000 lotnisk (raport METAR i TAF).

Dostępne stacje oznaczono żółtymi i czerwonymi punktami na mapie.

Najedź kursorem aby zobaczyć nazwę stacji.

Kliknij aby zobaczyć obserwacje i prognozy pogody.

Aby zmienić mapę: kliknij na zielony przycisk z czarnym krzyżykiem, aby powiększyć; na zielony przycisk z myślnikiem, aby pomniejszyć; na zielone strzałki, aby przejść do map sąsiednich.


METAR-TAF: